Ulan Bator, Mongolia

6:01 AM +08 on April 21, 2018 (GMT +0800)
Buyant-Ukhaa | | Change Station

Elev 4364 ft 47.84 °N, 106.77 °E | Updated 1 minute ago

Mostly Cloudy
Mostly Cloudy
39 °F
Feels Like 31 °F
N
13
Wind Variable Wind from SE

Today
High -- | Low -- °F
--% Chance of Precip.
Yesterday
High -- | Low -- °F
Precip. -- in
Pressure 30.09 in
Visibility 6.2 miles
Clouds Scattered Clouds 3300 ft
Scattered Clouds 10000 ft
Windchill 31 °F
Dew Point 7 °F
Humidity 26%
Rainfall 0.00 in
Snow Depth Not available.
5:52 AM 7:50 PM
Waxing Crescent, 28% visible
METAR ZMUB 202200Z 13006MPS 9999 SCT033 SCT100 04/M14 Q1019 NOSIG RMK QFE656.6 25 MOP
Pressure 30.09 in
Visibility 6.2 miles
Clouds Scattered Clouds 3300 ft
Scattered Clouds 10000 ft
Windchill 31 °F
Dew Point 7 °F
Humidity 26%
Rainfall 0.00 in
Snow Depth Not available.
5:52 AM 7:50 PM
Waxing Crescent, 28% visible
METAR ZMUB 202200Z 13006MPS 9999 SCT033 SCT100 04/M14 Q1019 NOSIG RMK QFE656.6 25 MOP

Get Severe Weather Alerts

Thanks for signing up!

Be on the lookout for a verification email in your inbox.

You'll start receiving the daily forecast at 6 AM.

×

10-Day Weather Forecast

No radar image for this location.
×

Almanac

Astronomy

Apr. 21, 2018 Rise Set
Actual Time
Civil Twilight
Nautical Twilight
Astronomical Twilight
Moon
Length of Visible Light
Length of Day
Tomorrow will be .
, % of the Moon is Illuminated

Today's Extremes

Country Highs Country Lows

Community

WunderPhotos

Category 6

Welcome to Category 6. This is the collective home for Weather Underground's featured writeups by Dr. Jeff Masters (right), Bob Henson (left), Chris Burt, and other regular contributors.

Nearby

Air Quality

  Air Quality AQ Index Pollutant
Not available.

Snow Depth

Station Depth Elevation

Earthquake Activity

City Distance Mag. Time & Date
Minimum magnitude displayed is 2.5.

Coastal Water Temperatures

Place Temperature

Stations

Nearby Weather Stations

Station Location Temp. Windchill Dew Point Humidity Wind Precip. Elev Updated Type